sensor_id;sensor_type;location;lat;lon;timestamp;pressure;altitude;pressure_sealevel;temperature;humidity
64610;BME280;51019;46.090;6.350;2023-05-20T00:01:23;96459.22;;;10.60;100.00
64610;BME280;51019;46.090;6.350;2023-05-20T00:03:51;96458.56;;;10.39;100.00
64610;BME280;51019;46.090;6.350;2023-05-20T00:06:18;96458.88;;;10.36;100.00
64610;BME280;51019;46.090;6.350;2023-05-20T00:08:45;96455.59;;;10.24;100.00
64610;BME280;51019;46.090;6.350;2023-05-20T00:11:13;96452.53;;;10.29;100.00
64610;BME280;51019;46.090;6.350;2023-05-20T00:13:40;96458.97;;;10.44;100.00
64610;BME280;51019;46.090;6.350;2023-05-20T00:16:09;96466.00;;;10.43;100.00
64610;BME280;51019;46.090;6.350;2023-05-20T00:18:37;96448.09;;;10.39;100.00
64610;BME280;51019;46.090;6.350;2023-05-20T00:21:04;96452.19;;;10.51;100.00
64610;BME280;51019;46.090;6.350;2023-05-20T00:23:32;96456.34;;;10.44;100.00
64610;BME280;51019;46.090;6.350;2023-05-20T00:25:59;96452.22;;;10.41;100.00
64610;BME280;51019;46.090;6.350;2023-05-20T00:28:27;96444.97;;;10.63;100.00
64610;BME280;51019;46.090;6.350;2023-05-20T00:30:55;96440.34;;;10.74;100.00
64610;BME280;51019;46.090;6.350;2023-05-20T00:33:24;96428.22;;;10.46;100.00
64610;BME280;51019;46.090;6.350;2023-05-20T00:35:51;96434.03;;;10.40;100.00
64610;BME280;51019;46.090;6.350;2023-05-20T00:38:19;96416.28;;;10.34;100.00
64610;BME280;51019;46.090;6.350;2023-05-20T00:40:46;96431.16;;;10.33;100.00
64610;BME280;51019;46.090;6.350;2023-05-20T00:43:13;96448.44;;;10.26;100.00
64610;BME280;51019;46.090;6.350;2023-05-20T00:45:40;96444.94;;;10.35;100.00
64610;BME280;51019;46.090;6.350;2023-05-20T00:48:08;96435.19;;;10.18;100.00
64610;BME280;51019;46.090;6.350;2023-05-20T00:50:38;96425.28;;;10.12;100.00
64610;BME280;51019;46.090;6.350;2023-05-20T00:53:07;96444.03;;;9.98;100.00
64610;BME280;51019;46.090;6.350;2023-05-20T00:55:35;96433.44;;;9.99;100.00
64610;BME280;51019;46.090;6.350;2023-05-20T00:58:03;96425.59;;;9.90;100.00
64610;BME280;51019;46.090;6.350;2023-05-20T01:00:30;96421.75;;;9.74;100.00
64610;BME280;51019;46.090;6.350;2023-05-20T01:02:58;96421.22;;;9.61;100.00
64610;BME280;51019;46.090;6.350;2023-05-20T01:05:25;96418.34;;;9.64;100.00
64610;BME280;51019;46.090;6.350;2023-05-20T01:07:54;96410.47;;;9.64;100.00
64610;BME280;51019;46.090;6.350;2023-05-20T01:10:23;96406.09;;;9.65;100.00
64610;BME280;51019;46.090;6.350;2023-05-20T01:12:53;96409.09;;;9.60;100.00
64610;BME280;51019;46.090;6.350;2023-05-20T01:15:23;96412.69;;;9.50;100.00
64610;BME280;51019;46.090;6.350;2023-05-20T01:17:56;96396.75;;;9.33;100.00
64610;BME280;51019;46.090;6.350;2023-05-20T01:20:27;96413.13;;;9.55;100.00
64610;BME280;51019;46.090;6.350;2023-05-20T01:22:58;96412.44;;;9.33;100.00
64610;BME280;51019;46.090;6.350;2023-05-20T01:25:26;96413.41;;;9.32;100.00
64610;BME280;51019;46.090;6.350;2023-05-20T01:27:54;96407.47;;;9.21;100.00
64610;BME280;51019;46.090;6.350;2023-05-20T01:30:25;96416.00;;;9.32;100.00
64610;BME280;51019;46.090;6.350;2023-05-20T01:33:00;96400.59;;;9.39;100.00
64610;BME280;51019;46.090;6.350;2023-05-20T01:35:28;96422.47;;;9.67;100.00
64610;BME280;51019;46.090;6.350;2023-05-20T01:37:59;96406.63;;;9.39;100.00
64610;BME280;51019;46.090;6.350;2023-05-20T01:40:27;96427.44;;;9.70;100.00
64610;BME280;51019;46.090;6.350;2023-05-20T01:42:55;96414.91;;;9.54;100.00
64610;BME280;51019;46.090;6.350;2023-05-20T01:45:24;96419.56;;;9.79;100.00
64610;BME280;51019;46.090;6.350;2023-05-20T01:47:51;96420.91;;;9.83;100.00
64610;BME280;51019;46.090;6.350;2023-05-20T01:50:20;96421.06;;;9.82;100.00
64610;BME280;51019;46.090;6.350;2023-05-20T01:52:47;96405.53;;;9.61;100.00
64610;BME280;51019;46.090;6.350;2023-05-20T01:55:16;96422.34;;;9.68;100.00
64610;BME280;51019;46.090;6.350;2023-05-20T01:57:44;96410.19;;;9.77;100.00
64610;BME280;51019;46.090;6.350;2023-05-20T02:00:12;96408.28;;;9.79;100.00
64610;BME280;51019;46.090;6.350;2023-05-20T02:02:39;96408.00;;;9.72;100.00
64610;BME280;51019;46.090;6.350;2023-05-20T02:05:07;96411.44;;;9.73;100.00
64610;BME280;51019;46.090;6.350;2023-05-20T02:07:35;96371.53;;;9.42;100.00
64610;BME280;51019;46.090;6.350;2023-05-20T02:10:03;96393.69;;;9.57;100.00
64610;BME280;51019;46.090;6.350;2023-05-20T02:12:32;96402.91;;;9.52;100.00
64610;BME280;51019;46.090;6.350;2023-05-20T02:15:00;96401.41;;;9.59;100.00
64610;BME280;51019;46.090;6.350;2023-05-20T02:17:27;96361.47;;;9.37;100.00
64610;BME280;51019;46.090;6.350;2023-05-20T02:19:55;96398.78;;;9.39;100.00
64610;BME280;51019;46.090;6.350;2023-05-20T02:22:22;96408.03;;;9.34;100.00
64610;BME280;51019;46.090;6.350;2023-05-20T02:24:49;96403.63;;;9.34;100.00
64610;BME280;51019;46.090;6.350;2023-05-20T02:27:17;96405.81;;;9.20;100.00
64610;BME280;51019;46.090;6.350;2023-05-20T02:29:46;96397.16;;;9.19;100.00
64610;BME280;51019;46.090;6.350;2023-05-20T02:32:13;96401.41;;;9.30;100.00
64610;BME280;51019;46.090;6.350;2023-05-20T02:34:41;96400.84;;;9.26;100.00
64610;BME280;51019;46.090;6.350;2023-05-20T02:37:08;96385.59;;;9.22;100.00
64610;BME280;51019;46.090;6.350;2023-05-20T02:39:35;96401.03;;;9.25;100.00
64610;BME280;51019;46.090;6.350;2023-05-20T02:42:03;96395.50;;;9.18;100.00
64610;BME280;51019;46.090;6.350;2023-05-20T02:44:30;96391.53;;;9.14;100.00
64610;BME280;51019;46.090;6.350;2023-05-20T02:46:59;96390.41;;;9.26;100.00
64610;BME280;51019;46.090;6.350;2023-05-20T02:49:27;96390.97;;;9.20;100.00
64610;BME280;51019;46.090;6.350;2023-05-20T02:51:54;96388.75;;;9.06;100.00
64610;BME280;51019;46.090;6.350;2023-05-20T02:54:21;96351.03;;;8.80;100.00
64610;BME280;51019;46.090;6.350;2023-05-20T02:56:48;96370.00;;;8.82;100.00
64610;BME280;51019;46.090;6.350;2023-05-20T02:59:16;96377.47;;;9.05;100.00
64610;BME280;51019;46.090;6.350;2023-05-20T03:01:43;96389.00;;;9.03;100.00
64610;BME280;51019;46.090;6.350;2023-05-20T03:04:12;96367.56;;;8.90;100.00
64610;BME280;51019;46.090;6.350;2023-05-20T03:06:40;96374.56;;;8.99;100.00
64610;BME280;51019;46.090;6.350;2023-05-20T03:09:08;96392.19;;;9.06;100.00
64610;BME280;51019;46.090;6.350;2023-05-20T03:11:36;96385.44;;;8.94;100.00
64610;BME280;51019;46.090;6.350;2023-05-20T03:14:03;96391.91;;;9.00;100.00
64610;BME280;51019;46.090;6.350;2023-05-20T03:16:30;96383.50;;;9.06;100.00
64610;BME280;51019;46.090;6.350;2023-05-20T03:19:00;96383.69;;;9.14;100.00
64610;BME280;51019;46.090;6.350;2023-05-20T03:21:30;96358.19;;;9.06;100.00
64610;BME280;51019;46.090;6.350;2023-05-20T03:23:58;96381.31;;;9.30;100.00
64610;BME280;51019;46.090;6.350;2023-05-20T03:26:26;96383.78;;;9.41;100.00
64610;BME280;51019;46.090;6.350;2023-05-20T03:28:53;96379.41;;;9.23;100.00
64610;BME280;51019;46.090;6.350;2023-05-20T03:31:22;96384.91;;;9.10;100.00
64610;BME280;51019;46.090;6.350;2023-05-20T03:33:50;96376.94;;;9.02;100.00
64610;BME280;51019;46.090;6.350;2023-05-20T03:36:17;96383.53;;;9.25;100.00
64610;BME280;51019;46.090;6.350;2023-05-20T03:38:46;96380.63;;;9.28;100.00
64610;BME280;51019;46.090;6.350;2023-05-20T03:41:14;96380.09;;;9.34;100.00
64610;BME280;51019;46.090;6.350;2023-05-20T03:43:41;96375.53;;;9.17;100.00
64610;BME280;51019;46.090;6.350;2023-05-20T03:46:08;96372.22;;;9.15;100.00
64610;BME280;51019;46.090;6.350;2023-05-20T03:48:36;96360.13;;;9.33;100.00
64610;BME280;51019;46.090;6.350;2023-05-20T03:51:05;96373.59;;;9.38;100.00
64610;BME280;51019;46.090;6.350;2023-05-20T03:53:34;96371.13;;;9.37;100.00
64610;BME280;51019;46.090;6.350;2023-05-20T03:56:04;96362.44;;;9.56;100.00
64610;BME280;51019;46.090;6.350;2023-05-20T03:58:31;96341.56;;;9.36;100.00
64610;BME280;51019;46.090;6.350;2023-05-20T04:00:59;96346.25;;;9.23;100.00
64610;BME280;51019;46.090;6.350;2023-05-20T04:03:27;96370.00;;;9.49;100.00
64610;BME280;51019;46.090;6.350;2023-05-20T04:05:54;96360.53;;;9.58;100.00
64610;BME280;51019;46.090;6.350;2023-05-20T04:08:21;96348.41;;;9.37;100.00
64610;BME280;51019;46.090;6.350;2023-05-20T04:10:50;96368.66;;;9.45;100.00
64610;BME280;51019;46.090;6.350;2023-05-20T04:13:19;96373.31;;;9.51;100.00
64610;BME280;51019;46.090;6.350;2023-05-20T04:15:47;96371.53;;;9.42;100.00
64610;BME280;51019;46.090;6.350;2023-05-20T04:18:14;96363.13;;;9.58;100.00
64610;BME280;51019;46.090;6.350;2023-05-20T04:20:41;96366.13;;;9.63;100.00
64610;BME280;51019;46.090;6.350;2023-05-20T04:23:09;96365.19;;;9.64;100.00
64610;BME280;51019;46.090;6.350;2023-05-20T04:25:36;96366.69;;;9.66;100.00
64610;BME280;51019;46.090;6.350;2023-05-20T04:28:05;96368.66;;;10.01;100.00
64610;BME280;51019;46.090;6.350;2023-05-20T04:30:35;96375.94;;;10.07;100.00
64610;BME280;51019;46.090;6.350;2023-05-20T04:33:02;96377.88;;;10.05;100.00
64610;BME280;51019;46.090;6.350;2023-05-20T04:35:30;96346.53;;;9.86;100.00
64610;BME280;51019;46.090;6.350;2023-05-20T04:37:59;96377.03;;;10.05;100.00
64610;BME280;51019;46.090;6.350;2023-05-20T04:40:26;96380.91;;;10.10;100.00
64610;BME280;51019;46.090;6.350;2023-05-20T04:42:54;96377.19;;;10.13;100.00
64610;BME280;51019;46.090;6.350;2023-05-20T04:45:22;96381.88;;;10.09;100.00
64610;BME280;51019;46.090;6.350;2023-05-20T04:47:53;96379.09;;;10.11;100.00
64610;BME280;51019;46.090;6.350;2023-05-20T04:50:20;96357.22;;;10.02;100.00
64610;BME280;51019;46.090;6.350;2023-05-20T04:52:48;96378.47;;;9.99;100.00
64610;BME280;51019;46.090;6.350;2023-05-20T04:55:16;96360.94;;;10.00;100.00
64610;BME280;51019;46.090;6.350;2023-05-20T04:57:44;96362.50;;;9.93;100.00
64610;BME280;51019;46.090;6.350;2023-05-20T05:00:12;96380.09;;;10.00;100.00
64610;BME280;51019;46.090;6.350;2023-05-20T05:02:40;96381.22;;;9.98;100.00
64610;BME280;51019;46.090;6.350;2023-05-20T05:05:10;96386.31;;;9.99;100.00
64610;BME280;51019;46.090;6.350;2023-05-20T05:07:37;96369.88;;;10.07;100.00
64610;BME280;51019;46.090;6.350;2023-05-20T05:10:05;96353.16;;;10.17;100.00
64610;BME280;51019;46.090;6.350;2023-05-20T05:12:32;96371.50;;;10.54;100.00
64610;BME280;51019;46.090;6.350;2023-05-20T05:15:00;96349.03;;;10.52;100.00
64610;BME280;51019;46.090;6.350;2023-05-20T05:17:27;96351.78;;;10.50;100.00
64610;BME280;51019;46.090;6.350;2023-05-20T05:19:55;96359.22;;;10.55;100.00
64610;BME280;51019;46.090;6.350;2023-05-20T05:22:25;96342.59;;;10.46;100.00
64610;BME280;51019;46.090;6.350;2023-05-20T05:24:52;96357.66;;;10.62;100.00
64610;BME280;51019;46.090;6.350;2023-05-20T05:27:20;96353.66;;;10.85;100.00
64610;BME280;51019;46.090;6.350;2023-05-20T05:29:49;96360.31;;;10.98;100.00
64610;BME280;51019;46.090;6.350;2023-05-20T05:32:16;96356.44;;;11.02;100.00
64610;BME280;51019;46.090;6.350;2023-05-20T05:34:44;96349.94;;;11.06;100.00
64610;BME280;51019;46.090;6.350;2023-05-20T05:37:11;96348.50;;;10.94;100.00
64610;BME280;51019;46.090;6.350;2023-05-20T05:39:41;96351.78;;;10.96;100.00
64610;BME280;51019;46.090;6.350;2023-05-20T05:42:08;96356.16;;;11.05;100.00
64610;BME280;51019;46.090;6.350;2023-05-20T05:44:35;96351.50;;;11.16;100.00
64610;BME280;51019;46.090;6.350;2023-05-20T05:47:04;96348.13;;;11.24;100.00
64610;BME280;51019;46.090;6.350;2023-05-20T05:49:31;96348.47;;;11.29;100.00
64610;BME280;51019;46.090;6.350;2023-05-20T05:51:59;96346.03;;;11.27;100.00
64610;BME280;51019;46.090;6.350;2023-05-20T05:54:27;96354.25;;;11.33;100.00
64610;BME280;51019;46.090;6.350;2023-05-20T05:56:57;96348.13;;;11.24;100.00
64610;BME280;51019;46.090;6.350;2023-05-20T05:59:24;96351.78;;;11.49;100.00
64610;BME280;51019;46.090;6.350;2023-05-20T06:01:51;96351.44;;;11.70;100.00
64610;BME280;51019;46.090;6.350;2023-05-20T06:04:21;96352.41;;;11.69;100.00
64610;BME280;51019;46.090;6.350;2023-05-20T06:06:48;96344.81;;;11.65;100.00
64610;BME280;51019;46.090;6.350;2023-05-20T06:09:16;96340.16;;;11.95;100.00
64610;BME280;51019;46.090;6.350;2023-05-20T06:11:43;96342.09;;;11.93;100.00
64610;BME280;51019;46.090;6.350;2023-05-20T06:14:14;96346.72;;;11.99;100.00
64610;BME280;51019;46.090;6.350;2023-05-20T06:16:41;96335.38;;;11.98;100.00
64610;BME280;51019;46.090;6.350;2023-05-20T06:19:08;96344.84;;;12.17;100.00
64610;BME280;51019;46.090;6.350;2023-05-20T06:21:36;96332.84;;;12.49;100.00
64610;BME280;51019;46.090;6.350;2023-05-20T06:24:04;96323.97;;;12.58;100.00
64610;BME280;51019;46.090;6.350;2023-05-20T06:26:31;96323.22;;;12.82;100.00
64610;BME280;51019;46.090;6.350;2023-05-20T06:28:58;96330.50;;;13.04;100.00
64610;BME280;51019;46.090;6.350;2023-05-20T06:31:28;96324.72;;;12.92;100.00
64610;BME280;51019;46.090;6.350;2023-05-20T06:33:55;96330.03;;;13.08;100.00
64610;BME280;51019;46.090;6.350;2023-05-20T06:36:22;96327.09;;;13.28;100.00
64610;BME280;51019;46.090;6.350;2023-05-20T06:38:50;96316.72;;;13.26;100.00
64610;BME280;51019;46.090;6.350;2023-05-20T06:41:18;96319.38;;;13.26;100.00
64610;BME280;51019;46.090;6.350;2023-05-20T06:43:48;96306.38;;;13.41;100.00
64610;BME280;51019;46.090;6.350;2023-05-20T06:46:15;96308.16;;;13.65;100.00
64610;BME280;51019;46.090;6.350;2023-05-20T06:48:46;96313.94;;;13.60;100.00
64610;BME280;51019;46.090;6.350;2023-05-20T06:51:14;96325.59;;;13.66;100.00
64610;BME280;51019;46.090;6.350;2023-05-20T06:53:42;96315.56;;;13.61;100.00
64610;BME280;51019;46.090;6.350;2023-05-20T06:56:09;96319.69;;;13.48;100.00
64610;BME280;51019;46.090;6.350;2023-05-20T06:58:36;96299.13;;;13.35;100.00
64610;BME280;51019;46.090;6.350;2023-05-20T07:01:04;96304.72;;;13.40;100.00
64610;BME280;51019;46.090;6.350;2023-05-20T07:03:31;96315.56;;;13.45;100.00
64610;BME280;51019;46.090;6.350;2023-05-20T07:06:00;96298.16;;;13.52;100.00
64610;BME280;51019;46.090;6.350;2023-05-20T07:08:28;96315.06;;;13.58;100.00
64610;BME280;51019;46.090;6.350;2023-05-20T07:10:55;96306.16;;;13.67;100.00
64610;BME280;51019;46.090;6.350;2023-05-20T07:13:24;96314.59;;;13.54;100.00
64610;BME280;51019;46.090;6.350;2023-05-20T07:15:52;96299.31;;;13.17;100.00
64610;BME280;51019;46.090;6.350;2023-05-20T07:18:19;96312.13;;;13.36;100.00
64610;BME280;51019;46.090;6.350;2023-05-20T07:20:47;96316.22;;;13.63;100.00
64610;BME280;51019;46.090;6.350;2023-05-20T07:23:16;96311.28;;;13.68;100.00
64610;BME280;51019;46.090;6.350;2023-05-20T07:25:43;96301.03;;;13.81;100.00
64610;BME280;51019;46.090;6.350;2023-05-20T07:28:10;96305.41;;;13.42;100.00
64610;BME280;51019;46.090;6.350;2023-05-20T07:30:38;96309.13;;;13.80;100.00
64610;BME280;51019;46.090;6.350;2023-05-20T07:33:05;96299.56;;;13.87;100.00
64610;BME280;51019;46.090;6.350;2023-05-20T07:35:32;96295.84;;;14.12;100.00
64610;BME280;51019;46.090;6.350;2023-05-20T07:38:00;96288.66;;;14.45;100.00
64610;BME280;51019;46.090;6.350;2023-05-20T07:40:29;96278.09;;;14.06;100.00
64610;BME280;51019;46.090;6.350;2023-05-20T07:42:56;96289.69;;;14.44;100.00
64610;BME280;51019;46.090;6.350;2023-05-20T07:45:24;96285.13;;;14.61;100.00
64610;BME280;51019;46.090;6.350;2023-05-20T07:47:51;96241.81;;;14.56;100.00
64610;BME280;51019;46.090;6.350;2023-05-20T07:50:19;96273.13;;;15.04;100.00
64610;BME280;51019;46.090;6.350;2023-05-20T07:52:47;96266.69;;;14.84;100.00
64610;BME280;51019;46.090;6.350;2023-05-20T07:55:14;96255.72;;;14.95;100.00
64610;BME280;51019;46.090;6.350;2023-05-20T07:57:45;96276.91;;;15.10;100.00
64610;BME280;51019;46.090;6.350;2023-05-20T08:00:12;96244.25;;;14.65;100.00
64610;BME280;51019;46.090;6.350;2023-05-20T08:02:40;96254.44;;;14.91;100.00
64610;BME280;51019;46.090;6.350;2023-05-20T08:05:08;96243.94;;;15.06;100.00
64610;BME280;51019;46.090;6.350;2023-05-20T08:07:35;96251.78;;;14.91;100.00
64610;BME280;51019;46.090;6.350;2023-05-20T08:10:03;96257.66;;;15.01;100.00
64610;BME280;51019;46.090;6.350;2023-05-20T08:12:30;96253.56;;;14.99;100.00
64610;BME280;51019;46.090;6.350;2023-05-20T08:14:59;96254.38;;;14.99;100.00
64610;BME280;51019;46.090;6.350;2023-05-20T08:17:27;96249.81;;;14.93;100.00
64610;BME280;51019;46.090;6.350;2023-05-20T08:19:54;96243.28;;;15.04;100.00
64610;BME280;51019;46.090;6.350;2023-05-20T08:22:21;96256.16;;;15.44;100.00
64610;BME280;51019;46.090;6.350;2023-05-20T08:24:49;96254.09;;;15.69;100.00
64610;BME280;51019;46.090;6.350;2023-05-20T08:27:16;96247.13;;;15.76;100.00
64610;BME280;51019;46.090;6.350;2023-05-20T08:29:44;96234.81;;;16.13;100.00
64610;BME280;51019;46.090;6.350;2023-05-20T08:32:13;96237.09;;;15.86;100.00
64610;BME280;51019;46.090;6.350;2023-05-20T08:34:40;96263.94;;;15.60;100.00
64610;BME280;51019;46.090;6.350;2023-05-20T08:37:07;96257.56;;;15.55;100.00
64610;BME280;51019;46.090;6.350;2023-05-20T08:39:34;96256.03;;;15.60;100.00
64610;BME280;51019;46.090;6.350;2023-05-20T08:42:02;96263.59;;;15.64;100.00
64610;BME280;51019;46.090;6.350;2023-05-20T08:44:32;96221.44;;;15.33;100.00
64610;BME280;51019;46.090;6.350;2023-05-20T08:47:01;96249.25;;;15.58;100.00
64610;BME280;51019;46.090;6.350;2023-05-20T08:49:32;96256.22;;;15.36;100.00
64610;BME280;51019;46.090;6.350;2023-05-20T08:52:00;96246.06;;;15.25;100.00
64610;BME280;51019;46.090;6.350;2023-05-20T08:54:41;96257.28;;;15.27;100.00
64610;BME280;51019;46.090;6.350;2023-05-20T08:57:09;96253.53;;;15.44;100.00
64610;BME280;51019;46.090;6.350;2023-05-20T08:59:41;96255.38;;;15.36;100.00
64610;BME280;51019;46.090;6.350;2023-05-20T09:02:09;96259.84;;;15.35;100.00
64610;BME280;51019;46.090;6.350;2023-05-20T09:04:38;96234.03;;;15.45;100.00
64610;BME280;51019;46.090;6.350;2023-05-20T09:07:07;96223.56;;;14.77;100.00
64610;BME280;51019;46.090;6.350;2023-05-20T09:09:35;96233.66;;;15.48;100.00
64610;BME280;51019;46.090;6.350;2023-05-20T09:12:03;96243.53;;;14.94;100.00
64610;BME280;51019;46.090;6.350;2023-05-20T09:14:32;96243.75;;;15.97;100.00
64610;BME280;51019;46.090;6.350;2023-05-20T09:16:59;96236.09;;;16.02;100.00
64610;BME280;51019;46.090;6.350;2023-05-20T09:19:26;96228.72;;;15.68;100.00
64610;BME280;51019;46.090;6.350;2023-05-20T09:21:55;96246.66;;;15.73;100.00
64610;BME280;51019;46.090;6.350;2023-05-20T09:24:24;96223.69;;;15.88;100.00
64610;BME280;51019;46.090;6.350;2023-05-20T09:26:52;96235.06;;;16.32;100.00
64610;BME280;51019;46.090;6.350;2023-05-20T09:29:21;96244.50;;;16.92;100.00
64610;BME280;51019;46.090;6.350;2023-05-20T09:31:49;96245.00;;;17.24;100.00
64610;BME280;51019;46.090;6.350;2023-05-20T09:34:16;96233.59;;;17.79;94.54
64610;BME280;51019;46.090;6.350;2023-05-20T09:36:44;96226.53;;;16.88;99.32
64610;BME280;51019;46.090;6.350;2023-05-20T09:39:15;96228.94;;;18.16;93.60
64610;BME280;51019;46.090;6.350;2023-05-20T09:41:56;96240.19;;;18.31;93.25
64610;BME280;51019;46.090;6.350;2023-05-20T09:44:28;96232.69;;;18.41;80.91
64610;BME280;51019;46.090;6.350;2023-05-20T09:46:56;96243.72;;;18.38;74.62
64610;BME280;51019;46.090;6.350;2023-05-20T09:49:24;96240.22;;;17.96;77.68
64610;BME280;51019;46.090;6.350;2023-05-20T09:51:53;96231.59;;;17.81;74.73
64610;BME280;51019;46.090;6.350;2023-05-20T09:54:24;96233.59;;;17.79;74.20
64610;BME280;51019;46.090;6.350;2023-05-20T09:56:53;96231.44;;;17.96;74.25
64610;BME280;51019;46.090;6.350;2023-05-20T09:59:22;96215.94;;;18.95;69.09
64610;BME280;51019;46.090;6.350;2023-05-20T10:01:50;96216.38;;;18.44;72.04
64610;BME280;51019;46.090;6.350;2023-05-20T10:04:19;96228.69;;;18.10;72.81
64610;BME280;51019;46.090;6.350;2023-05-20T10:07:03;96231.59;;;18.22;70.71
64610;BME280;51019;46.090;6.350;2023-05-20T10:09:46;96238.72;;;17.81;72.87
64610;BME280;51019;46.090;6.350;2023-05-20T10:12:23;96231.38;;;17.55;73.38
64610;BME280;51019;46.090;6.350;2023-05-20T10:14:59;96228.19;;;18.35;70.53
64610;BME280;51019;46.090;6.350;2023-05-20T10:17:36;96224.88;;;18.80;71.47
64610;BME280;51019;46.090;6.350;2023-05-20T10:20:09;96225.66;;;18.61;72.47
64610;BME280;51019;46.090;6.350;2023-05-20T10:22:38;96207.22;;;18.53;71.16
64610;BME280;51019;46.090;6.350;2023-05-20T10:25:11;96226.09;;;18.78;71.25
64610;BME280;51019;46.090;6.350;2023-05-20T10:27:42;96214.56;;;18.51;70.53
64610;BME280;51019;46.090;6.350;2023-05-20T10:30:18;96215.19;;;17.43;73.56
64610;BME280;51019;46.090;6.350;2023-05-20T10:32:51;96217.06;;;17.00;77.33
64610;BME280;51019;46.090;6.350;2023-05-20T10:35:21;96210.66;;;17.37;75.91
64610;BME280;51019;46.090;6.350;2023-05-20T10:37:51;96194.78;;;17.99;71.17
64610;BME280;51019;46.090;6.350;2023-05-20T10:40:21;96200.78;;;17.80;74.53
64610;BME280;51019;46.090;6.350;2023-05-20T10:42:50;96207.91;;;18.21;74.53
64610;BME280;51019;46.090;6.350;2023-05-20T10:45:24;96209.13;;;18.59;72.04
64610;BME280;51019;46.090;6.350;2023-05-20T10:47:54;96205.47;;;18.86;71.87
64610;BME280;51019;46.090;6.350;2023-05-20T10:50:26;96206.09;;;18.82;68.93
64610;BME280;51019;46.090;6.350;2023-05-20T10:52:55;96211.75;;;18.11;74.38
64610;BME280;51019;46.090;6.350;2023-05-20T10:55:38;96209.19;;;19.12;71.16
64610;BME280;51019;46.090;6.350;2023-05-20T10:58:06;96192.19;;;18.67;75.18
64610;BME280;51019;46.090;6.350;2023-05-20T11:00:34;96203.88;;;18.99;72.83
64610;BME280;51019;46.090;6.350;2023-05-20T11:03:03;96196.31;;;19.02;70.34
64610;BME280;51019;46.090;6.350;2023-05-20T11:05:30;96191.81;;;18.83;69.45
64610;BME280;51019;46.090;6.350;2023-05-20T11:08:02;96197.97;;;19.10;68.39
64610;BME280;51019;46.090;6.350;2023-05-20T11:10:32;96190.63;;;19.25;67.22
64610;BME280;51019;46.090;6.350;2023-05-20T11:13:03;96191.22;;;19.40;65.98
64610;BME280;51019;46.090;6.350;2023-05-20T11:15:30;96154.44;;;19.11;68.84
64610;BME280;51019;46.090;6.350;2023-05-20T11:18:00;96186.97;;;19.52;67.05
64610;BME280;51019;46.090;6.350;2023-05-20T11:20:29;96183.25;;;19.14;68.64
64610;BME280;51019;46.090;6.350;2023-05-20T11:23:00;96176.28;;;18.86;69.41
64610;BME280;51019;46.090;6.350;2023-05-20T11:25:28;96170.97;;;19.19;67.73
64610;BME280;51019;46.090;6.350;2023-05-20T11:27:56;96169.06;;;17.93;72.00
64610;BME280;51019;46.090;6.350;2023-05-20T11:30:26;96171.66;;;17.87;70.21
64610;BME280;51019;46.090;6.350;2023-05-20T11:32:57;96158.69;;;18.59;70.04
64610;BME280;51019;46.090;6.350;2023-05-20T11:35:26;96167.59;;;18.45;72.34
64610;BME280;51019;46.090;6.350;2023-05-20T11:37:55;96164.03;;;18.85;71.58
64610;BME280;51019;46.090;6.350;2023-05-20T11:40:24;96161.59;;;18.91;69.26
64610;BME280;51019;46.090;6.350;2023-05-20T11:42:54;96146.97;;;18.40;71.20
64610;BME280;51019;46.090;6.350;2023-05-20T11:45:23;96135.59;;;17.92;74.65
64610;BME280;51019;46.090;6.350;2023-05-20T11:48:00;96157.81;;;18.52;71.65
64610;BME280;51019;46.090;6.350;2023-05-20T11:50:34;96150.47;;;18.47;71.51
64610;BME280;51019;46.090;6.350;2023-05-20T11:53:04;96148.16;;;18.31;73.79
64610;BME280;51019;46.090;6.350;2023-05-20T11:55:32;96153.91;;;18.35;74.57
64610;BME280;51019;46.090;6.350;2023-05-20T11:58:02;96154.28;;;18.25;73.11
64610;BME280;51019;46.090;6.350;2023-05-20T12:00:30;96153.09;;;18.34;74.11
64610;BME280;51019;46.090;6.350;2023-05-20T12:02:59;96139.81;;;18.34;73.87
64610;BME280;51019;46.090;6.350;2023-05-20T12:05:27;96142.09;;;18.44;72.27
64610;BME280;51019;46.090;6.350;2023-05-20T12:07:54;96145.84;;;18.69;71.88
64610;BME280;51019;46.090;6.350;2023-05-20T12:10:22;96139.94;;;19.07;70.99
64610;BME280;51019;46.090;6.350;2023-05-20T12:12:49;96117.88;;;18.93;70.59
64610;BME280;51019;46.090;6.350;2023-05-20T12:15:16;96144.44;;;18.73;72.42
64610;BME280;51019;46.090;6.350;2023-05-20T12:17:46;96144.44;;;19.06;69.46
64610;BME280;51019;46.090;6.350;2023-05-20T12:20:18;96141.19;;;19.17;72.11
64610;BME280;51019;46.090;6.350;2023-05-20T12:22:46;96126.47;;;18.95;70.58
64610;BME280;51019;46.090;6.350;2023-05-20T12:25:14;96142.19;;;19.23;71.27
64610;BME280;51019;46.090;6.350;2023-05-20T12:27:44;96143.19;;;18.76;70.30
64610;BME280;51019;46.090;6.350;2023-05-20T12:30:14;96153.38;;;18.59;72.66
64610;BME280;51019;46.090;6.350;2023-05-20T12:32:42;96150.72;;;18.66;70.65
64610;BME280;51019;46.090;6.350;2023-05-20T12:35:10;96145.44;;;18.72;71.42
64610;BME280;51019;46.090;6.350;2023-05-20T12:37:40;96140.88;;;18.53;72.24
64610;BME280;51019;46.090;6.350;2023-05-20T12:40:10;96150.13;;;18.70;72.83
64610;BME280;51019;46.090;6.350;2023-05-20T12:42:38;96150.94;;;18.64;74.62
64610;BME280;51019;46.090;6.350;2023-05-20T12:45:07;96151.78;;;18.78;73.70
64610;BME280;51019;46.090;6.350;2023-05-20T12:47:35;96155.03;;;18.86;73.39
64610;BME280;51019;46.090;6.350;2023-05-20T12:50:03;96160.94;;;18.75;73.12
64610;BME280;51019;46.090;6.350;2023-05-20T12:52:32;96142.38;;;18.69;72.42
64610;BME280;51019;46.090;6.350;2023-05-20T12:55:01;96146.88;;;18.68;74.47
64610;BME280;51019;46.090;6.350;2023-05-20T12:57:30;96144.63;;;18.78;73.40
64610;BME280;51019;46.090;6.350;2023-05-20T12:59:57;96151.78;;;18.91;72.28
64610;BME280;51019;46.090;6.350;2023-05-20T13:02:24;96153.00;;;18.82;72.85